Time;durP1;ratioP1;P1;durP2;ratioP2;P2;SDS_P1;SDS_P2;PMS_P1;PMS_P2;Temp;Humidity;BMP_temperature;BMP_pressure;BME280_temperature;BME280_humidity;BME280_pressure;Samples;Min_cycle;Max_cycle;Signal;HPM_P1;HPM_P2
2022/08/30 00:02:28;;;;;;;4.85;3.40;;;;;;;;;;5071190;28;20137;-69
2022/08/30 00:04:55;;;;;;;4.75;3.08;;;;;;;;;;5069471;28;20048;-69
2022/08/30 00:07:22;;;;;;;7.28;3.50;;;;;;;;;;5072294;28;20411;-69
2022/08/30 00:09:49;;;;;;;4.90;3.28;;;;;;;;;;5062398;28;20048;-69
2022/08/30 00:12:17;;;;;;;5.72;3.45;;;;;;;;;;5060679;28;20047;-69
2022/08/30 00:14:44;;;;;;;8.52;3.80;;;;;;;;;;5057516;28;20052;-69
2022/08/30 00:17:11;;;;;;;7.90;4.03;;;;;;;;;;5056601;28;20044;-69
2022/08/30 00:19:39;;;;;;;5.38;3.47;;;;;;;;;;5054869;28;20049;-69
2022/08/30 00:22:08;;;;;;;7.18;4.18;;;;;;;;;;5066527;28;20051;-69
2022/08/30 00:24:36;;;;;;;6.82;3.70;;;;;;;;;;5063144;28;20071;-69
2022/08/30 00:27:04;;;;;;;5.15;3.40;;;;;;;;;;5062469;28;20102;-69
2022/08/30 00:29:31;;;;;;;7.07;3.65;;;;;;;;;;5053941;28;20589;-69
2022/08/30 00:31:58;;;;;;;7.53;3.85;;;;;;;;;;5059735;28;20048;-69
2022/08/30 00:34:25;;;;;;;5.72;3.80;;;;;;;;;;5072123;28;20499;-69
2022/08/30 00:36:54;;;;;;;6.05;3.33;;;;;;;;;;5065839;28;20392;-69
2022/08/30 00:39:21;;;;;;;6.65;3.70;;;;;;;;;;5047379;28;20048;-69
2022/08/30 00:41:48;;;;;;;7.47;3.88;;;;;;;;;;5063218;28;20118;-69
2022/08/30 00:44:15;;;;;;;7.50;3.75;;;;;;;;;;5069180;28;20741;-69
2022/08/30 00:46:42;;;;;;;7.57;3.92;;;;;;;;;;5074679;28;20476;-69
2022/08/30 00:49:11;;;;;;;8.40;3.80;;;;;;;;;;5069411;28;20102;-69
2022/08/30 00:51:39;;;;;;;7.40;3.72;;;;;;;;;;5059549;28;20051;-69
2022/08/30 00:54:08;;;;;;;6.82;3.35;;;;;;;;;;5037824;28;20052;-69
2022/08/30 00:56:35;;;;;;;8.65;3.60;;;;;;;;;;5051315;28;20053;-69
2022/08/30 00:59:04;;;;;;;7.80;3.63;;;;;;;;;;5067792;28;20056;-69
2022/08/30 01:01:32;;;;;;;9.82;3.70;;;;;;;;;;5075588;28;20051;-68
2022/08/30 01:04:00;;;;;;;7.45;3.40;;;;;;;;;;5069666;28;20049;-69
2022/08/30 01:06:28;;;;;;;6.80;3.28;;;;;;;;;;5075977;28;20044;-69
2022/08/30 01:08:55;;;;;;;7.03;2.97;;;;;;;;;;5071460;28;20131;-69
2022/08/30 01:11:24;;;;;;;6.90;3.08;;;;;;;;;;5066329;28;20419;-69
2022/08/30 01:13:52;;;;;;;5.95;3.42;;;;;;;;;;5058189;28;20595;-69
2022/08/30 01:16:19;;;;;;;6.47;2.90;;;;;;;;;;5041253;28;20053;-69
2022/08/30 01:18:47;;;;;;;4.32;2.83;;;;;;;;;;5064374;28;20552;-69
2022/08/30 01:21:17;;;;;;;6.28;2.85;;;;;;;;;;5066909;28;20048;-69
2022/08/30 01:23:47;;;;;;;7.85;2.72;;;;;;;;;;5065855;28;20048;-69
2022/08/30 01:26:16;;;;;;;8.02;2.92;;;;;;;;;;5062106;28;20522;-69
2022/08/30 01:28:45;;;;;;;8.02;2.65;;;;;;;;;;5076643;28;20193;-69
2022/08/30 01:31:12;;;;;;;6.22;2.72;;;;;;;;;;5067028;28;20056;-69
2022/08/30 01:33:39;;;;;;;7.85;2.88;;;;;;;;;;5048868;28;20108;-69
2022/08/30 01:36:09;;;;;;;5.53;2.55;;;;;;;;;;5072780;28;20056;-69
2022/08/30 01:38:37;;;;;;;4.82;2.75;;;;;;;;;;5064066;28;20052;-69
2022/08/30 01:41:11;;;;;;;5.95;2.70;;;;;;;;;;5050464;28;20057;-69
2022/08/30 01:43:38;;;;;;;4.95;2.38;;;;;;;;;;5056649;28;20131;-69
2022/08/30 01:46:05;;;;;;;4.47;2.55;;;;;;;;;;5066428;28;20037;-69
2022/08/30 01:48:33;;;;;;;5.13;2.40;;;;;;;;;;5068114;28;20105;-68
2022/08/30 01:51:00;;;;;;;6.15;2.40;;;;;;;;;;5068214;28;20098;-69
2022/08/30 01:53:27;;;;;;;6.22;2.25;;;;;;;;;;5061889;28;20053;-69
2022/08/30 01:55:54;;;;;;;7.53;2.50;;;;;;;;;;5063911;28;20044;-69
2022/08/30 01:58:23;;;;;;;7.03;2.45;;;;;;;;;;5071367;28;20048;-69
2022/08/30 02:00:51;;;;;;;9.43;2.60;;;;;;;;;;5066609;28;20059;-69
2022/08/30 02:03:18;;;;;;;6.00;2.50;;;;;;;;;;5068929;28;20040;-69
2022/08/30 02:05:47;;;;;;;5.28;2.35;;;;;;;;;;5066346;28;20164;-69
2022/08/30 02:08:14;;;;;;;7.18;2.83;;;;;;;;;;5072275;28;20048;-69
2022/08/30 02:10:41;;;;;;;6.10;2.50;;;;;;;;;;5054281;28;20083;-69
2022/08/30 02:13:09;;;;;;;8.23;2.40;;;;;;;;;;5069224;28;20041;-69
2022/08/30 02:15:37;;;;;;;4.30;2.53;;;;;;;;;;5063623;28;20133;-69
2022/08/30 02:18:04;;;;;;;6.65;2.58;;;;;;;;;;5070192;28;20526;-69
2022/08/30 02:20:32;;;;;;;3.92;2.40;;;;;;;;;;5068717;28;20751;-69
2022/08/30 02:22:59;;;;;;;9.07;2.53;;;;;;;;;;5063087;28;20052;-69
2022/08/30 02:25:26;;;;;;;5.20;2.20;;;;;;;;;;5071771;28;20105;-69
2022/08/30 02:27:53;;;;;;;9.55;2.70;;;;;;;;;;5069283;28;20049;-69
2022/08/30 02:30:20;;;;;;;5.88;2.33;;;;;;;;;;5068723;28;20045;-69
2022/08/30 02:32:49;;;;;;;6.85;2.50;;;;;;;;;;5071269;28;20056;-69
2022/08/30 02:35:16;;;;;;;8.48;2.47;;;;;;;;;;5063608;28;20052;-69
2022/08/30 02:37:44;;;;;;;5.00;2.60;;;;;;;;;;5069850;28;20851;-69
2022/08/30 02:40:11;;;;;;;6.50;2.40;;;;;;;;;;5067434;28;20498;-69
2022/08/30 02:42:40;;;;;;;9.00;2.83;;;;;;;;;;5070527;28;20045;-69
2022/08/30 02:45:08;;;;;;;7.15;2.55;;;;;;;;;;5066287;28;20845;-69
2022/08/30 02:47:36;;;;;;;7.13;2.50;;;;;;;;;;5045465;28;20041;-69
2022/08/30 02:50:05;;;;;;;6.75;2.53;;;;;;;;;;5066850;28;20079;-69
2022/08/30 02:52:32;;;;;;;5.38;2.38;;;;;;;;;;5065103;28;20044;-69
2022/08/30 02:54:59;;;;;;;7.03;2.90;;;;;;;;;;5064448;28;20060;-69
2022/08/30 02:57:28;;;;;;;7.35;2.55;;;;;;;;;;5066310;28;20063;-69
2022/08/30 02:59:55;;;;;;;6.80;2.58;;;;;;;;;;5066461;28;20128;-69
2022/08/30 03:02:22;;;;;;;3.92;2.50;;;;;;;;;;5059837;28;20056;-69
2022/08/30 03:04:50;;;;;;;5.45;2.40;;;;;;;;;;5057508;28;20095;-69
2022/08/30 03:07:18;;;;;;;4.57;2.42;;;;;;;;;;5041632;28;20099;-69
2022/08/30 03:09:46;;;;;;;7.03;2.83;;;;;;;;;;5072159;28;20466;-69
2022/08/30 03:12:13;;;;;;;6.45;2.90;;;;;;;;;;5066295;28;20506;-69
2022/08/30 03:14:40;;;;;;;4.32;2.47;;;;;;;;;;5048543;28;20162;-69
2022/08/30 03:17:08;;;;;;;6.35;2.50;;;;;;;;;;5050787;28;20748;-69
2022/08/30 03:19:36;;;;;;;6.60;2.95;;;;;;;;;;5069333;28;20044;-69
2022/08/30 03:22:03;;;;;;;9.38;2.85;;;;;;;;;;5070923;28;20123;-69
2022/08/30 03:24:32;;;;;;;5.65;2.72;;;;;;;;;;5070446;28;20110;-69
2022/08/30 03:26:59;;;;;;;8.30;3.00;;;;;;;;;;5059521;28;20037;-69
2022/08/30 03:29:28;;;;;;;6.75;3.28;;;;;;;;;;5065629;28;20045;-69
2022/08/30 03:31:55;;;;;;;6.10;2.70;;;;;;;;;;5063571;28;20053;-69
2022/08/30 03:34:23;;;;;;;5.50;2.72;;;;;;;;;;5065324;28;20045;-69
2022/08/30 03:36:51;;;;;;;4.38;2.50;;;;;;;;;;5070330;28;20633;-69
2022/08/30 03:39:19;;;;;;;3.22;2.22;;;;;;;;;;5063842;28;20666;-69
2022/08/30 03:41:47;;;;;;;4.68;2.78;;;;;;;;;;5065121;28;20051;-69
2022/08/30 03:44:14;;;;;;;3.67;2.30;;;;;;;;;;5047330;28;20639;-69
2022/08/30 03:46:42;;;;;;;3.92;2.17;;;;;;;;;;5063735;28;20087;-69
2022/08/30 03:49:09;;;;;;;3.92;2.25;;;;;;;;;;5069211;28;20525;-69
2022/08/30 03:51:36;;;;;;;6.80;2.28;;;;;;;;;;5063215;28;20044;-69
2022/08/30 03:54:04;;;;;;;3.47;2.20;;;;;;;;;;5069122;28;20059;-68
2022/08/30 03:56:31;;;;;;;4.03;2.35;;;;;;;;;;5068336;28;20105;-69
2022/08/30 03:58:59;;;;;;;3.58;1.88;;;;;;;;;;5068058;28;20052;-69
2022/08/30 04:01:27;;;;;;;5.07;2.85;;;;;;;;;;5073255;28;20048;-68
2022/08/30 04:03:55;;;;;;;7.97;2.53;;;;;;;;;;5067147;28;20052;-69
2022/08/30 04:06:22;;;;;;;5.40;2.25;;;;;;;;;;5060704;28;20059;-69
2022/08/30 04:08:49;;;;;;;3.15;2.30;;;;;;;;;;5047739;28;20045;-69
2022/08/30 04:11:17;;;;;;;4.78;2.60;;;;;;;;;;5062286;28;20778;-69
2022/08/30 04:13:45;;;;;;;4.85;2.15;;;;;;;;;;5066952;28;20037;-69
2022/08/30 04:16:13;;;;;;;3.92;2.17;;;;;;;;;;5062602;28;20052;-69
2022/08/30 04:18:40;;;;;;;5.32;2.42;;;;;;;;;;5071092;28;20048;-69
2022/08/30 04:21:08;;;;;;;3.65;2.08;;;;;;;;;;5063508;28;20056;-69
2022/08/30 04:23:35;;;;;;;3.03;1.90;;;;;;;;;;5066179;28;20053;-68
2022/08/30 04:26:02;;;;;;;4.00;2.40;;;;;;;;;;5063603;28;20455;-69
2022/08/30 04:28:29;;;;;;;4.97;2.58;;;;;;;;;;5050495;28;20044;-69
2022/08/30 04:30:56;;;;;;;5.25;2.78;;;;;;;;;;5055200;28;20052;-69
2022/08/30 04:33:25;;;;;;;4.53;2.08;;;;;;;;;;5064219;28;20044;-69
2022/08/30 04:35:52;;;;;;;5.80;2.50;;;;;;;;;;5064217;28;20512;-69
2022/08/30 04:38:20;;;;;;;4.47;2.58;;;;;;;;;;5063339;28;20660;-69
2022/08/30 04:40:48;;;;;;;4.55;2.60;;;;;;;;;;5066176;28;20071;-69
2022/08/30 04:43:15;;;;;;;5.30;2.70;;;;;;;;;;5067519;28;20052;-69
2022/08/30 04:45:43;;;;;;;4.07;2.30;;;;;;;;;;5045661;28;20059;-68
2022/08/30 04:48:10;;;;;;;3.85;2.60;;;;;;;;;;5070887;28;20062;-69
2022/08/30 04:50:38;;;;;;;6.75;2.45;;;;;;;;;;5053930;28;20511;-68
2022/08/30 04:53:06;;;;;;;3.65;2.70;;;;;;;;;;5060102;28;20060;-68
2022/08/30 04:55:33;;;;;;;6.93;2.53;;;;;;;;;;5043600;28;20048;-68
2022/08/30 04:58:00;;;;;;;3.55;2.88;;;;;;;;;;5061397;28;20041;-68
2022/08/30 05:00:27;;;;;;;3.55;2.72;;;;;;;;;;5067641;28;20446;-69
2022/08/30 05:02:55;;;;;;;6.10;2.92;;;;;;;;;;5063735;28;20044;-69
2022/08/30 05:05:40;;;;;;;4.97;3.28;;;;;;;;;;5067215;28;20052;-67
2022/08/30 05:08:09;;;;;;;8.40;3.58;;;;;;;;;;5067163;28;20127;-68
2022/08/30 05:10:38;;;;;;;5.53;3.42;;;;;;;;;;5062415;28;20052;-68
2022/08/30 05:13:05;;;;;;;5.85;3.55;;;;;;;;;;5040515;28;20127;-68
2022/08/30 05:15:32;;;;;;;6.97;3.63;;;;;;;;;;5067510;28;20052;-68
2022/08/30 05:18:00;;;;;;;6.85;3.47;;;;;;;;;;5059754;28;20407;-68
2022/08/30 05:20:27;;;;;;;5.90;3.35;;;;;;;;;;5046798;28;20052;-68
2022/08/30 05:22:54;;;;;;;7.13;3.72;;;;;;;;;;5063998;28;20048;-68
2022/08/30 05:25:24;;;;;;;4.93;3.45;;;;;;;;;;5066280;28;20094;-68
2022/08/30 05:27:52;;;;;;;10.73;4.32;;;;;;;;;;5064701;28;20056;-68
2022/08/30 05:30:19;;;;;;;8.70;3.08;;;;;;;;;;5062764;28;20135;-68
2022/08/30 05:32:46;;;;;;;6.63;3.40;;;;;;;;;;5065855;28;20048;-68
2022/08/30 05:35:15;;;;;;;4.82;3.25;;;;;;;;;;5063987;28;20044;-68
2022/08/30 05:37:42;;;;;;;6.68;3.15;;;;;;;;;;5060517;28;20048;-68
2022/08/30 05:40:10;;;;;;;5.68;3.05;;;;;;;;;;5047640;28;20052;-68
2022/08/30 05:42:40;;;;;;;5.93;2.85;;;;;;;;;;5064338;28;20052;-68
2022/08/30 05:45:08;;;;;;;6.10;3.25;;;;;;;;;;5060911;28;20798;-68
2022/08/30 05:47:35;;;;;;;6.60;4.20;;;;;;;;;;5065382;28;20498;-68
2022/08/30 05:50:02;;;;;;;7.15;3.47;;;;;;;;;;5039518;28;20140;-68
2022/08/30 05:52:30;;;;;;;5.47;3.55;;;;;;;;;;5066389;28;20056;-69
2022/08/30 05:54:58;;;;;;;7.47;3.60;;;;;;;;;;5062431;28;20060;-69
2022/08/30 05:57:26;;;;;;;5.72;3.90;;;;;;;;;;5063147;28;20049;-68
2022/08/30 05:59:54;;;;;;;5.38;3.92;;;;;;;;;;5051974;28;20121;-68
2022/08/30 06:02:22;;;;;;;9.27;4.20;;;;;;;;;;5060720;28;20569;-68
2022/08/30 06:04:49;;;;;;;8.43;4.07;;;;;;;;;;5063495;28;20052;-68
2022/08/30 06:07:16;;;;;;;6.90;4.20;;;;;;;;;;5062459;28;20045;-69
2022/08/30 06:09:43;;;;;;;6.72;4.55;;;;;;;;;;5056869;28;20048;-67
2022/08/30 06:12:11;;;;;;;8.60;4.75;;;;;;;;;;5061176;28;20053;-68
2022/08/30 06:14:38;;;;;;;8.18;4.95;;;;;;;;;;5037978;28;20053;-68
2022/08/30 06:17:07;;;;;;;8.85;4.95;;;;;;;;;;5056795;28;20493;-69
2022/08/30 06:19:34;;;;;;;9.07;4.72;;;;;;;;;;5063070;28;20049;-68
2022/08/30 06:22:01;;;;;;;6.05;4.40;;;;;;;;;;5053618;28;20052;-69
2022/08/30 06:24:28;;;;;;;7.65;4.60;;;;;;;;;;5065887;28;20752;-69
2022/08/30 06:26:56;;;;;;;9.85;4.60;;;;;;;;;;5065889;28;20614;-69
2022/08/30 06:29:23;;;;;;;11.38;4.78;;;;;;;;;;5048641;28;20066;-69
2022/08/30 06:31:50;;;;;;;8.23;5.00;;;;;;;;;;5067335;28;20094;-69
2022/08/30 06:34:19;;;;;;;10.52;4.68;;;;;;;;;;5064430;28;20052;-68
2022/08/30 06:36:46;;;;;;;7.72;4.00;;;;;;;;;;5059522;28;20522;-68
2022/08/30 06:39:13;;;;;;;8.13;4.45;;;;;;;;;;5062509;28;20052;-68
2022/08/30 06:41:41;;;;;;;8.13;4.05;;;;;;;;;;5061260;28;20053;-69
2022/08/30 06:44:09;;;;;;;7.38;4.00;;;;;;;;;;5055109;28;20098;-69
2022/08/30 06:46:37;;;;;;;7.55;3.95;;;;;;;;;;5058653;28;20403;-68
2022/08/30 06:49:05;;;;;;;6.53;3.83;;;;;;;;;;5062035;28;20052;-68
2022/08/30 06:51:34;;;;;;;9.25;3.55;;;;;;;;;;5061411;28;20048;-68
2022/08/30 06:54:03;;;;;;;7.82;3.58;;;;;;;;;;5057585;28;20103;-68
2022/08/30 06:56:30;;;;;;;7.15;3.90;;;;;;;;;;5066103;28;20080;-68
2022/08/30 06:58:57;;;;;;;8.13;3.58;;;;;;;;;;5062944;28;20056;-69
2022/08/30 07:01:25;;;;;;;7.72;3.20;;;;;;;;;;5059440;28;20048;-69
2022/08/30 07:03:53;;;;;;;12.48;2.55;;;;;;;;;;5060611;28;20090;-68
2022/08/30 07:06:20;;;;;;;4.82;2.80;;;;;;;;;;5057848;28;20063;-69
2022/08/30 07:08:49;;;;;;;6.97;2.88;;;;;;;;;;5062139;28;20170;-69
2022/08/30 07:11:25;;;;;;;4.03;2.17;;;;;;;;;;5046009;28;20137;-69
2022/08/30 07:13:52;;;;;;;4.32;2.25;;;;;;;;;;5061026;28;20048;-69
2022/08/30 07:16:20;;;;;;;5.10;2.20;;;;;;;;;;5068768;28;20044;-69
2022/08/30 07:18:49;;;;;;;4.78;2.10;;;;;;;;;;5071152;28;20138;-69
2022/08/30 07:21:17;;;;;;;5.22;2.50;;;;;;;;;;5059705;28;20123;-69
2022/08/30 07:23:45;;;;;;;7.70;2.00;;;;;;;;;;5067020;28;20044;-69
2022/08/30 07:26:14;;;;;;;6.28;1.85;;;;;;;;;;5049123;28;20396;-69
2022/08/30 07:28:43;;;;;;;5.32;1.70;;;;;;;;;;5063228;28;20039;-69
2022/08/30 07:31:11;;;;;;;6.50;1.55;;;;;;;;;;5063335;28;20111;-70
2022/08/30 07:33:39;;;;;;;4.15;1.65;;;;;;;;;;5064167;28;20056;-69
2022/08/30 07:36:07;;;;;;;3.03;1.45;;;;;;;;;;5065348;28;20123;-69
2022/08/30 07:38:34;;;;;;;2.53;1.23;;;;;;;;;;5058040;28;20500;-69
2022/08/30 07:41:02;;;;;;;7.47;1.50;;;;;;;;;;5063476;28;20053;-69
2022/08/30 07:43:31;;;;;;;4.10;1.40;;;;;;;;;;5068026;28;20048;-69
2022/08/30 07:46:01;;;;;;;6.03;1.35;;;;;;;;;;5038617;28;20135;-69
2022/08/30 07:48:28;;;;;;;3.92;1.40;;;;;;;;;;5066104;28;20078;-69
2022/08/30 07:50:55;;;;;;;5.13;1.30;;;;;;;;;;5064622;28;20048;-69
2022/08/30 07:53:23;;;;;;;6.15;1.50;;;;;;;;;;5059141;28;20534;-69
2022/08/30 07:55:50;;;;;;;4.53;1.55;;;;;;;;;;5065068;28;20517;-69
2022/08/30 07:58:17;;;;;;;4.65;1.45;;;;;;;;;;5058937;28;20068;-69
2022/08/30 08:00:45;;;;;;;5.45;1.50;;;;;;;;;;5058501;28;20052;-69
2022/08/30 08:03:13;;;;;;;4.32;1.60;;;;;;;;;;5065106;28;20048;-70
2022/08/30 08:05:41;;;;;;;3.55;1.50;;;;;;;;;;5058809;28;20064;-69
2022/08/30 08:08:08;;;;;;;3.35;1.20;;;;;;;;;;5063924;28;20427;-70
2022/08/30 08:10:37;;;;;;;2.80;1.38;;;;;;;;;;5062042;28;20056;-69
2022/08/30 08:13:04;;;;;;;4.45;1.30;;;;;;;;;;5064390;28;20083;-70
2022/08/30 08:15:31;;;;;;;10.70;1.50;;;;;;;;;;5050245;28;20086;-69
2022/08/30 08:18:00;;;;;;;4.82;1.30;;;;;;;;;;5063288;28;20128;-69
2022/08/30 08:20:27;;;;;;;2.08;1.20;;;;;;;;;;5053310;28;20135;-70
2022/08/30 08:22:55;;;;;;;2.47;1.30;;;;;;;;;;5058350;28;20751;-68
2022/08/30 08:25:22;;;;;;;4.30;1.58;;;;;;;;;;5058374;28;20057;-69
2022/08/30 08:27:50;;;;;;;9.85;1.38;;;;;;;;;;5063715;28;20115;-69
2022/08/30 08:30:18;;;;;;;5.68;1.70;;;;;;;;;;5064050;28;20075;-69
2022/08/30 08:32:45;;;;;;;2.97;1.35;;;;;;;;;;5057704;28;20140;-69
2022/08/30 08:35:14;;;;;;;3.80;1.27;;;;;;;;;;5045514;28;20452;-68
2022/08/30 08:37:41;;;;;;;3.15;1.20;;;;;;;;;;5063068;28;20060;-69
2022/08/30 08:40:10;;;;;;;8.40;1.40;;;;;;;;;;5063922;28;20052;-70
2022/08/30 08:42:46;;;;;;;7.03;1.50;;;;;;;;;;5065421;28;20044;-69
2022/08/30 08:45:15;;;;;;;2.70;1.02;;;;;;;;;;5069253;28;20055;-69
2022/08/30 08:47:50;;;;;;;5.15;1.40;;;;;;;;;;5066056;28;20123;-69
2022/08/30 08:50:20;;;;;;;5.47;1.45;;;;;;;;;;5050218;28;20106;-69
2022/08/30 08:55:35;;;;;;;3.08;1.40;;;;;;;;;;5065901;28;20078;-69
2022/08/30 08:58:03;;;;;;;5.88;1.25;;;;;;;;;;5064657;28;20067;-69
2022/08/30 09:00:30;;;;;;;2.40;1.10;;;;;;;;;;5069830;28;20059;-70
2022/08/30 09:02:58;;;;;;;3.20;1.25;;;;;;;;;;5071540;28;20040;-70
2022/08/30 09:05:30;;;;;;;2.70;1.50;;;;;;;;;;5066471;28;20041;-70
2022/08/30 09:08:00;;;;;;;5.35;1.65;;;;;;;;;;5066204;28;20103;-69
2022/08/30 09:10:28;;;;;;;3.88;1.20;;;;;;;;;;5054006;28;20499;-70
2022/08/30 09:12:56;;;;;;;4.68;1.30;;;;;;;;;;5068412;28;20048;-69
2022/08/30 09:15:26;;;;;;;2.90;1.30;;;;;;;;;;5061110;28;20041;-70
2022/08/30 09:17:54;;;;;;;4.20;0.90;;;;;;;;;;5064183;28;20106;-69
2022/08/30 09:20:28;;;;;;;3.25;1.23;;;;;;;;;;5065278;28;20044;-69
2022/08/30 09:22:55;;;;;;;;;;;;;;;;;;5046311;28;20115;-69
2022/08/30 09:25:23;;;;;;;5.20;1.30;;;;;;;;;;5050107;28;19969;-70
2022/08/30 09:27:51;;;;;;;5.05;1.15;;;;;;;;;;5065122;28;20131;-70
2022/08/30 09:30:20;;;;;;;6.65;1.08;;;;;;;;;;5067120;28;20051;-70
2022/08/30 09:32:52;;;;;;;3.30;1.30;;;;;;;;;;5065489;28;20056;-70
2022/08/30 09:35:20;;;;;;;5.60;1.30;;;;;;;;;;5047387;28;20081;-70
2022/08/30 09:37:53;;;;;;;3.72;1.48;;;;;;;;;;5067252;28;20055;-69
2022/08/30 09:40:29;;;;;;;5.07;1.30;;;;;;;;;;5070154;28;20045;-69
2022/08/30 09:43:01;;;;;;;3.75;1.38;;;;;;;;;;5069267;28;20057;-70
2022/08/30 09:45:33;;;;;;;3.60;1.10;;;;;;;;;;5069987;28;20136;-69
2022/08/30 09:48:01;;;;;;;2.85;1.27;;;;;;;;;;5068667;28;20052;-70
2022/08/30 09:50:33;;;;;;;8.60;1.30;;;;;;;;;;5063447;28;20049;-70
2022/08/30 09:53:08;;;;;;;1.73;0.90;;;;;;;;;;5057947;28;20064;-70
2022/08/30 09:55:45;;;;;;;5.40;1.38;;;;;;;;;;5066905;28;20048;-69
2022/08/30 09:58:19;;;;;;;5.22;1.10;;;;;;;;;;5064704;28;20056;-70
2022/08/30 10:00:49;;;;;;;4.60;1.23;;;;;;;;;;5070635;28;20582;-71
2022/08/30 10:03:29;;;;;;;4.38;1.05;;;;;;;;;;5052333;28;20052;-70
2022/08/30 10:05:59;;;;;;;3.45;1.23;;;;;;;;;;5067583;28;20067;-70
2022/08/30 10:08:31;;;;;;;2.95;1.33;;;;;;;;;;5072500;28;20052;-70
2022/08/30 10:11:00;;;;;;;3.05;1.17;;;;;;;;;;5067307;28;20056;-70
2022/08/30 10:13:39;;;;;;;4.03;1.20;;;;;;;;;;5069950;28;20042;-69
2022/08/30 10:16:11;;;;;;;5.20;1.45;;;;;;;;;;5063610;28;20045;-70
2022/08/30 10:18:41;;;;;;;5.57;1.30;;;;;;;;;;5066407;28;20110;-69
2022/08/30 10:21:14;;;;;;;5.07;1.35;;;;;;;;;;5067965;28;20059;-70
2022/08/30 10:23:44;;;;;;;4.68;1.40;;;;;;;;;;5067803;28;20125;-69
2022/08/30 10:26:13;;;;;;;4.22;1.15;;;;;;;;;;5064194;28;20472;-70
2022/08/30 10:28:43;;;;;;;10.27;1.63;;;;;;;;;;5072832;28;20574;-70
2022/08/30 10:31:11;;;;;;;2.45;1.00;;;;;;;;;;5052722;28;20056;-70
2022/08/30 10:33:41;;;;;;;2.55;1.10;;;;;;;;;;5072562;28;20052;-70
2022/08/30 10:36:10;;;;;;;5.32;1.20;;;;;;;;;;5068854;28;20049;-69
2022/08/30 10:38:38;;;;;;;3.25;1.20;;;;;;;;;;5049599;28;20048;-70
2022/08/30 10:41:15;;;;;;;2.17;1.23;;;;;;;;;;5070712;28;20212;-70
2022/08/30 10:43:48;;;;;;;6.45;1.70;;;;;;;;;;5071354;28;20056;-70
2022/08/30 10:46:18;;;;;;;4.45;1.20;;;;;;;;;;5049041;28;20122;-70
2022/08/30 10:48:46;;;;;;;4.28;0.98;;;;;;;;;;5073001;28;20044;-70
2022/08/30 10:51:15;;;;;;;4.90;1.20;;;;;;;;;;5067715;28;20040;-70
2022/08/30 10:53:45;;;;;;;3.90;1.30;;;;;;;;;;5068057;28;20056;-69
2022/08/30 10:56:17;;;;;;;4.50;0.98;;;;;;;;;;5065362;28;20044;-69
2022/08/30 10:58:44;;;;;;;4.80;1.00;;;;;;;;;;5051378;28;20091;-69
2022/08/30 11:01:21;;;;;;;1.30;0.90;;;;;;;;;;5070196;28;20048;-70
2022/08/30 11:04:03;;;;;;;3.33;0.90;;;;;;;;;;5064760;28;20415;-69
2022/08/30 11:06:34;;;;;;;4.10;1.20;;;;;;;;;;5068641;28;20514;-70
2022/08/30 11:09:11;;;;;;;6.15;1.02;;;;;;;;;;5059712;28;20089;-70
2022/08/30 11:11:51;;;;;;;4.85;0.82;;;;;;;;;;5068191;28;20061;-69
2022/08/30 11:14:19;;;;;;;3.22;0.90;;;;;;;;;;5061857;28;20102;-69
2022/08/30 11:16:48;;;;;;;5.05;1.33;;;;;;;;;;5068647;28;20062;-70
2022/08/30 11:19:17;;;;;;;3.67;1.00;;;;;;;;;;5060531;28;20045;-69
2022/08/30 11:21:45;;;;;;;3.70;0.93;;;;;;;;;;5066617;28;20051;-70
2022/08/30 11:24:13;;;;;;;2.15;1.08;;;;;;;;;;5068837;28;20040;-71
2022/08/30 11:26:57;;;;;;;1.10;0.65;;;;;;;;;;5067409;28;20054;-69
2022/08/30 11:29:35;;;;;;;4.40;1.10;;;;;;;;;;5061433;28;20275;-70
2022/08/30 11:32:17;;;;;;;1.45;1.02;;;;;;;;;;5067315;28;20655;-70
2022/08/30 11:34:54;;;;;;;2.38;1.00;;;;;;;;;;5061110;28;20053;-70
2022/08/30 11:37:34;;;;;;;4.55;1.13;;;;;;;;;;5066404;28;20071;-70
2022/08/30 11:40:02;;;;;;;3.53;1.15;;;;;;;;;;5062242;28;20048;-70
2022/08/30 11:42:35;;;;;;;4.20;1.48;;;;;;;;;;5060718;28;20056;-70
2022/08/30 11:45:20;;;;;;;3.05;1.10;;;;;;;;;;5044353;28;20141;-70
2022/08/30 11:47:49;;;;;;;2.40;1.17;;;;;;;;;;5012269;28;20052;-70
2022/08/30 11:50:20;;;;;;;5.47;1.42;;;;;;;;;;5049872;28;20048;-70
2022/08/30 11:52:51;;;;;;;5.85;1.30;;;;;;;;;;5064194;28;20058;-71
2022/08/30 11:55:23;;;;;;;3.22;1.15;;;;;;;;;;5065899;28;20121;-70
2022/08/30 11:57:57;;;;;;;3.03;1.25;;;;;;;;;;5066588;28;20056;-70
2022/08/30 12:00:29;;;;;;;4.00;1.30;;;;;;;;;;5067089;28;20062;-70
2022/08/30 12:02:58;;;;;;;5.05;1.40;;;;;;;;;;5063155;28;20052;-70
2022/08/30 12:05:44;;;;;;;3.20;1.33;;;;;;;;;;5046199;28;20050;-70
2022/08/30 12:08:32;;;;;;;2.42;1.25;;;;;;;;;;5064839;28;20049;-70
2022/08/30 12:11:01;;;;;;;6.22;1.48;;;;;;;;;;5054307;28;20048;-71
2022/08/30 12:13:43;;;;;;;2.85;1.40;;;;;;;;;;5065479;28;20076;-71
2022/08/30 12:16:12;;;;;;;1.75;1.20;;;;;;;;;;5062489;28;20056;-71
2022/08/30 12:18:44;;;;;;;4.80;1.70;;;;;;;;;;5068784;28;20610;-72
2022/08/30 12:21:29;;;;;;;4.93;1.47;;;;;;;;;;5045293;28;20054;-70
2022/08/30 12:24:00;;;;;;;4.25;1.58;;;;;;;;;;5066271;28;20306;-71
2022/08/30 12:26:32;;;;;;;2.80;1.60;;;;;;;;;;5062667;28;20134;-70
2022/08/30 12:29:08;;;;;;;5.13;1.88;;;;;;;;;;5070979;28;20135;-71
2022/08/30 12:31:40;;;;;;;5.53;1.90;;;;;;;;;;5061071;28;20122;-70
2022/08/30 12:34:07;;;;;;;;;;;;;;;;;;5072813;28;20499;-70
2022/08/30 12:36:37;;;;;;;4.20;1.45;;;;;;;;;;5059433;28;19924;-70
2022/08/30 12:39:06;;;;;;;2.35;1.40;;;;;;;;;;5064291;28;20137;-71
2022/08/30 12:41:33;;;;;;;5.63;1.52;;;;;;;;;;5068406;28;20052;-70
2022/08/30 12:44:00;;;;;;;3.00;1.42;;;;;;;;;;5063431;28;20056;-71
2022/08/30 12:46:29;;;;;;;2.17;1.38;;;;;;;;;;5062677;28;20041;-71
2022/08/30 12:48:57;;;;;;;3.58;1.42;;;;;;;;;;5066560;28;20094;-71
2022/08/30 12:51:29;;;;;;;5.72;1.60;;;;;;;;;;5066109;28;20047;-71
2022/08/30 12:54:03;;;;;;;2.42;1.38;;;;;;;;;;5062563;28;20464;-71
2022/08/30 12:56:45;;;;;;;5.38;1.70;;;;;;;;;;5060112;28;20064;-71
2022/08/30 12:59:32;;;;;;;5.00;1.60;;;;;;;;;;5061094;28;20155;-71
2022/08/30 13:02:06;;;;;;;43.63;2.53;;;;;;;;;;5057317;28;20110;-71
2022/08/30 13:04:36;;;;;;;6.15;1.50;;;;;;;;;;5064320;28;20049;-71
2022/08/30 13:07:03;;;;;;;4.68;1.45;;;;;;;;;;5064643;28;20055;-71
2022/08/30 13:09:32;;;;;;;3.72;1.70;;;;;;;;;;5042413;28;20518;-71
2022/08/30 13:12:01;;;;;;;3.35;1.55;;;;;;;;;;5046813;28;20458;-71
2022/08/30 13:14:33;;;;;;;4.65;1.60;;;;;;;;;;5062296;28;20040;-71
2022/08/30 13:17:11;;;;;;;4.20;1.65;;;;;;;;;;5044161;28;20051;-71
2022/08/30 13:19:41;;;;;;;3.78;1.88;;;;;;;;;;5068463;28;20060;-71
2022/08/30 13:22:24;;;;;;;7.45;1.85;;;;;;;;;;5052948;28;20056;-71
2022/08/30 13:24:51;;;;;;;3.58;1.98;;;;;;;;;;5064678;28;21491;-72
2022/08/30 13:27:18;;;;;;;2.13;1.40;;;;;;;;;;5071164;28;20047;-72
2022/08/30 13:29:46;;;;;;;2.45;1.40;;;;;;;;;;5056749;28;20052;-71
2022/08/30 13:32:13;;;;;;;5.70;1.80;;;;;;;;;;5061320;28;20494;-71
2022/08/30 13:34:42;;;;;;;3.13;1.60;;;;;;;;;;5069452;28;20110;-70
2022/08/30 13:37:11;;;;;;;3.92;1.70;;;;;;;;;;5055571;28;20057;-71
2022/08/30 13:39:39;;;;;;;2.10;1.48;;;;;;;;;;5066659;28;20056;-71
2022/08/30 13:42:07;;;;;;;4.90;1.70;;;;;;;;;;5040393;28;20065;-71
2022/08/30 13:44:34;;;;;;;5.03;1.45;;;;;;;;;;5051079;28;20052;-70
2022/08/30 13:47:01;;;;;;;4.80;1.50;;;;;;;;;;5073594;28;20045;-71
2022/08/30 13:49:29;;;;;;;6.00;1.77;;;;;;;;;;5070971;28;20053;-70
2022/08/30 13:51:58;;;;;;;2.88;1.50;;;;;;;;;;5063957;28;20045;-71
2022/08/30 13:54:25;;;;;;;2.72;1.45;;;;;;;;;;5048470;28;20060;-70
2022/08/30 13:56:53;;;;;;;3.70;1.60;;;;;;;;;;5067184;28;20044;-70
2022/08/30 13:59:21;;;;;;;5.90;1.67;;;;;;;;;;5051176;28;20053;-72
2022/08/30 14:01:49;;;;;;;4.03;1.80;;;;;;;;;;5068782;28;20048;-71
2022/08/30 14:04:17;;;;;;;4.07;1.80;;;;;;;;;;5062892;28;20056;-71
2022/08/30 14:06:44;;;;;;;3.22;1.30;;;;;;;;;;5068959;28;20050;-71
2022/08/30 14:09:13;;;;;;;2.72;1.60;;;;;;;;;;5059860;28;20125;-71
2022/08/30 14:11:40;;;;;;;3.47;1.67;;;;;;;;;;5060218;28;20078;-71
2022/08/30 14:14:08;;;;;;;3.97;1.60;;;;;;;;;;5070462;28;20048;-71
2022/08/30 14:16:36;;;;;;;2.80;1.52;;;;;;;;;;5057891;28;20053;-72
2022/08/30 14:19:04;;;;;;;5.53;1.88;;;;;;;;;;5068959;28;20063;-72
2022/08/30 14:21:31;;;;;;;3.03;1.70;;;;;;;;;;5065310;28;20102;-71
2022/08/30 14:23:58;;;;;;;2.28;1.70;;;;;;;;;;5064099;28;20060;-72
2022/08/30 14:26:28;;;;;;;6.72;1.70;;;;;;;;;;5072757;28;20495;-71
2022/08/30 14:28:55;;;;;;;2.28;1.55;;;;;;;;;;5074960;28;20040;-72
2022/08/30 14:31:22;;;;;;;3.05;2.00;;;;;;;;;;5074308;28;20056;-72
2022/08/30 14:33:50;;;;;;;2.63;1.70;;;;;;;;;;5065426;28;20450;-72
2022/08/30 14:36:17;;;;;;;1.83;1.50;;;;;;;;;;5067532;28;20051;-71
2022/08/30 14:38:45;;;;;;;2.03;1.70;;;;;;;;;;5055547;28;20098;-71
2022/08/30 14:41:12;;;;;;;2.63;1.85;;;;;;;;;;5068014;28;20561;-71
2022/08/30 14:43:41;;;;;;;3.83;1.83;;;;;;;;;;5065184;28;20056;-71
2022/08/30 14:46:09;;;;;;;2.92;1.80;;;;;;;;;;5065375;28;20048;-71
2022/08/30 14:48:36;;;;;;;3.78;1.70;;;;;;;;;;5063530;28;20052;-71
2022/08/30 14:51:04;;;;;;;2.42;1.55;;;;;;;;;;5057755;28;20097;-72
2022/08/30 14:53:31;;;;;;;2.45;1.67;;;;;;;;;;5067227;28;20053;-71
2022/08/30 14:55:58;;;;;;;3.05;1.70;;;;;;;;;;5067018;28;20055;-71
2022/08/30 14:58:26;;;;;;;6.63;1.65;;;;;;;;;;5049223;28;20455;-71